createdAt,value
2022-12-26T00:02:00.166Z,15.40
2022-12-26T00:04:49.558Z,15.39
2022-12-26T00:07:14.252Z,15.37
2022-12-26T00:09:40.992Z,15.35
2022-12-26T00:12:07.730Z,15.37
2022-12-26T00:14:34.439Z,15.35
2022-12-26T00:17:01.166Z,15.35
2022-12-26T00:19:27.890Z,15.36
2022-12-26T00:21:54.632Z,15.35
2022-12-26T00:24:21.366Z,15.36
2022-12-26T00:26:48.109Z,15.33
2022-12-26T00:53:25.506Z,15.11
2022-12-26T00:56:13.091Z,15.15
2022-12-26T01:46:27.866Z,15.15
2022-12-26T01:49:15.593Z,15.17
2022-12-26T01:51:50.965Z,15.20
2022-12-26T01:57:37.181Z,15.29
2022-12-26T02:00:24.135Z,15.29
2022-12-26T02:03:10.287Z,15.30
2022-12-26T02:05:38.428Z,15.30
2022-12-26T02:08:15.785Z,15.32
2022-12-26T02:11:22.641Z,15.30
2022-12-26T02:13:49.668Z,15.29
2022-12-26T02:16:19.085Z,15.29
2022-12-26T02:18:46.489Z,15.31
2022-12-26T02:21:37.311Z,15.26
2022-12-26T02:24:28.743Z,15.21
2022-12-26T02:28:08.068Z,15.16
2022-12-26T02:31:14.888Z,15.09
2022-12-26T02:34:15.416Z,15.07
2022-12-26T02:36:54.279Z,15.08
2022-12-26T02:39:44.203Z,15.09
2022-12-26T02:42:53.735Z,15.10
2022-12-26T02:45:54.646Z,15.09
2022-12-26T02:48:46.134Z,15.08
2022-12-26T02:51:56.042Z,15.08
2022-12-26T02:54:57.449Z,15.07
2022-12-26T02:57:55.593Z,15.07
2022-12-26T03:00:41.629Z,15.07
2022-12-26T03:03:38.839Z,15.08
2022-12-26T03:06:53.718Z,15.06
2022-12-26T03:09:49.961Z,15.03
2022-12-26T03:13:12.423Z,14.99
2022-12-26T03:16:04.505Z,14.98
2022-12-26T03:18:59.282Z,14.97
2022-12-26T03:21:28.809Z,14.97
2022-12-26T03:23:58.379Z,14.97
2022-12-26T03:26:41.138Z,14.97
2022-12-26T03:29:39.903Z,14.96
2022-12-26T03:32:11.992Z,14.94
2022-12-26T03:34:44.589Z,14.95
2022-12-26T03:37:48.466Z,14.91
2022-12-26T03:41:09.445Z,14.88
2022-12-26T03:44:07.532Z,14.84
2022-12-26T03:47:09.684Z,14.84
2022-12-26T03:50:05.553Z,14.85
2022-12-26T03:53:06.462Z,14.86
2022-12-26T03:56:28.360Z,14.88
2022-12-26T03:59:32.203Z,14.91
2022-12-26T04:02:25.476Z,14.95
2022-12-26T04:05:14.987Z,14.97
2022-12-26T04:08:14.841Z,15.01
2022-12-26T04:11:11.335Z,15.02
2022-12-26T04:14:21.584Z,15.04
2022-12-26T04:17:22.093Z,15.04
2022-12-26T04:20:02.167Z,15.04
2022-12-26T04:23:04.131Z,15.06
2022-12-26T04:26:25.601Z,15.02
2022-12-26T04:29:11.449Z,14.96
2022-12-26T04:32:38.391Z,14.98
2022-12-26T04:35:40.682Z,14.91
2022-12-26T04:38:32.320Z,14.87
2022-12-26T04:41:20.746Z,14.86
2022-12-26T04:44:08.568Z,14.83
2022-12-26T04:46:46.704Z,14.82
2022-12-26T04:49:35.549Z,14.80
2022-12-26T04:52:09.725Z,14.79
2022-12-26T04:54:36.689Z,14.78
2022-12-26T04:57:04.639Z,14.79
2022-12-26T04:59:31.999Z,14.79
2022-12-26T05:02:17.650Z,14.75
2022-12-26T05:05:03.080Z,14.71
2022-12-26T05:07:53.802Z,14.66
2022-12-26T05:10:28.743Z,14.61
2022-12-26T05:12:55.950Z,14.55
2022-12-26T05:15:23.237Z,14.52
2022-12-26T05:18:09.556Z,14.52
2022-12-26T05:20:55.008Z,14.49
2022-12-26T05:23:45.142Z,14.48
2022-12-26T05:26:38.550Z,14.45
2022-12-26T05:29:05.493Z,14.39
2022-12-26T05:31:36.194Z,14.36
2022-12-26T05:34:12.124Z,14.36
2022-12-26T05:36:45.787Z,14.33
2022-12-26T05:39:13.031Z,14.31
2022-12-26T05:41:42.792Z,14.32
2022-12-26T05:44:11.074Z,14.32
2022-12-26T05:46:39.023Z,14.31
2022-12-26T05:49:06.702Z,14.30
2022-12-26T05:51:34.851Z,14.27
2022-12-26T05:54:02.620Z,14.22
2022-12-26T05:56:29.904Z,14.19
2022-12-26T05:58:59.737Z,14.16
2022-12-26T06:01:28.685Z,14.14
2022-12-26T06:03:59.051Z,14.12
2022-12-26T06:06:27.766Z,14.15
2022-12-26T06:08:57.033Z,14.16
2022-12-26T06:11:26.374Z,14.18
2022-12-26T06:13:54.386Z,14.19
2022-12-26T06:16:21.575Z,14.21
2022-12-26T06:18:49.687Z,14.26
2022-12-26T06:21:20.396Z,14.23
2022-12-26T06:23:48.970Z,14.23
2022-12-26T06:26:17.112Z,14.22
2022-12-26T06:28:44.484Z,14.22
2022-12-26T06:31:16.974Z,14.20
2022-12-26T06:33:44.434Z,14.20
2022-12-26T06:36:16.323Z,14.18
2022-12-26T06:38:43.724Z,14.17
2022-12-26T06:41:15.766Z,14.15
2022-12-26T06:43:43.657Z,14.13
2022-12-26T06:46:14.945Z,14.10
2022-12-26T06:48:42.467Z,14.10
2022-12-26T06:51:19.950Z,14.10
2022-12-26T06:53:47.547Z,14.06
2022-12-26T06:56:18.833Z,14.05
2022-12-26T06:58:46.378Z,14.02
2022-12-26T07:01:17.413Z,14.01
2022-12-26T07:03:51.131Z,13.97
2022-12-26T07:06:25.666Z,13.97
2022-12-26T07:08:56.133Z,13.94
2022-12-26T07:11:27.677Z,13.92
2022-12-26T07:13:55.800Z,13.90
2022-12-26T07:16:23.703Z,13.88
2022-12-26T07:18:54.140Z,13.89
2022-12-26T07:21:21.612Z,13.89
2022-12-26T07:23:49.159Z,13.85
2022-12-26T07:26:16.068Z,13.84
2022-12-26T07:28:43.311Z,13.84
2022-12-26T07:31:15.464Z,13.83
2022-12-26T07:33:42.366Z,13.80
2022-12-26T07:36:09.424Z,13.78
2022-12-26T07:38:36.456Z,13.80
2022-12-26T07:41:23.411Z,13.78
2022-12-26T07:43:50.540Z,13.76
2022-12-26T07:46:18.145Z,13.76
2022-12-26T07:48:45.327Z,13.77
2022-12-26T07:51:12.918Z,13.80
2022-12-26T07:53:40.156Z,13.81
2022-12-26T07:56:08.006Z,13.81
2022-12-26T07:58:35.093Z,13.81
2022-12-26T08:09:23.591Z,13.87
2022-12-26T08:53:27.679Z,14.66
2022-12-26T08:55:54.966Z,14.77
2022-12-26T08:58:22.297Z,14.86
2022-12-26T09:00:54.915Z,14.94
2022-12-26T09:03:22.231Z,14.99
2022-12-26T09:05:49.104Z,15.09
2022-12-26T09:08:15.848Z,15.20
2022-12-26T10:47:40.129Z,15.46
2022-12-26T10:50:38.390Z,15.46
2022-12-26T10:53:14.542Z,15.47
2022-12-26T10:58:41.432Z,15.62
2022-12-26T11:01:39.410Z,15.73
2022-12-26T11:05:11.142Z,15.88
2022-12-26T11:07:12.626Z,16.02
2022-12-26T11:09:45.516Z,16.15
2022-12-26T11:12:37.941Z,16.33
2022-12-26T11:15:21.885Z,16.49
2022-12-26T11:17:52.109Z,16.61
2022-12-26T11:20:28.167Z,16.69
2022-12-26T11:22:55.454Z,16.74
2022-12-26T11:25:27.666Z,16.82
2022-12-26T11:27:59.552Z,16.88
2022-12-26T11:30:40.145Z,16.93
2022-12-26T11:33:14.247Z,17.00
2022-12-26T11:36:07.949Z,17.07
2022-12-26T11:38:55.611Z,17.15
2022-12-26T11:41:31.816Z,17.17
2022-12-26T11:44:10.570Z,17.12
2022-12-26T11:47:10.874Z,17.03
2022-12-26T11:50:01.657Z,16.95
2022-12-26T11:52:40.119Z,16.80
2022-12-26T11:55:35.729Z,16.62
2022-12-26T11:58:08.289Z,16.45
2022-12-26T12:01:02.979Z,16.28
2022-12-26T12:03:38.643Z,16.09
2022-12-26T12:06:40.919Z,15.92
2022-12-26T12:09:50.227Z,15.71
2022-12-26T12:12:45.293Z,15.56
2022-12-26T12:15:16.800Z,15.47
2022-12-26T12:17:58.841Z,15.44
2022-12-26T12:20:57.132Z,15.39
2022-12-26T12:24:10.182Z,15.32
2022-12-26T12:27:17.346Z,15.26
2022-12-26T12:30:11.296Z,15.21
2022-12-26T12:33:12.488Z,15.18
2022-12-26T12:36:02.405Z,15.18
2022-12-26T12:38:54.917Z,15.16
2022-12-26T12:42:04.457Z,15.17
2022-12-26T12:45:08.804Z,15.18
2022-12-26T12:48:02.956Z,15.19
2022-12-26T12:51:22.251Z,15.22
2022-12-26T12:54:38.155Z,15.22
2022-12-26T12:57:35.644Z,15.24
2022-12-26T13:00:13.048Z,15.23
2022-12-26T13:02:55.157Z,15.20
2022-12-26T13:05:48.360Z,14.98
2022-12-26T13:08:32.793Z,14.74
2022-12-26T13:11:16.468Z,14.54
2022-12-26T13:13:53.561Z,14.39
2022-12-26T13:16:31.569Z,14.27
2022-12-26T13:19:07.165Z,14.15
2022-12-26T13:21:39.935Z,14.07
2022-12-26T13:24:23.805Z,14.00
2022-12-26T13:27:22.206Z,13.90
2022-12-26T13:29:49.766Z,13.82
2022-12-26T13:32:25.586Z,13.78
2022-12-26T13:34:56.328Z,13.70
2022-12-26T13:37:38.067Z,13.66
2022-12-26T13:40:17.745Z,13.64
2022-12-26T13:43:27.725Z,13.58
2022-12-26T13:45:57.823Z,13.54
2022-12-26T13:48:29.466Z,13.51
2022-12-26T13:51:00.360Z,13.53
2022-12-26T13:53:38.390Z,13.52
2022-12-26T13:56:19.195Z,13.53
2022-12-26T13:59:26.612Z,13.48
2022-12-26T14:02:58.224Z,13.38
2022-12-26T14:05:23.566Z,13.26
2022-12-26T14:08:02.510Z,13.23
2022-12-26T14:10:48.024Z,13.18
2022-12-26T14:13:51.163Z,13.13
2022-12-26T14:16:53.464Z,13.03
2022-12-26T14:19:50.664Z,12.97
2022-12-26T14:23:16.964Z,12.91
2022-12-26T14:26:08.101Z,12.83
2022-12-26T14:29:20.556Z,12.80
2022-12-26T14:31:59.174Z,12.75
2022-12-26T14:35:04.554Z,12.75
2022-12-26T14:38:13.720Z,12.71
2022-12-26T14:41:04.652Z,12.71
2022-12-26T14:43:41.077Z,12.70
2022-12-26T14:46:32.542Z,12.72
2022-12-26T14:49:35.878Z,12.72
2022-12-26T14:52:24.785Z,12.68
2022-12-26T14:54:55.841Z,12.66
2022-12-26T14:57:45.729Z,12.66
2022-12-26T15:00:21.520Z,12.64
2022-12-26T15:03:49.471Z,12.64
2022-12-26T15:06:18.884Z,12.58
2022-12-26T15:10:04.728Z,12.57
2022-12-26T15:12:58.900Z,12.48
2022-12-26T15:16:15.437Z,12.46
2022-12-26T15:19:28.450Z,12.42
2022-12-26T15:22:25.766Z,12.37
2022-12-26T15:25:20.709Z,12.33
2022-12-26T15:28:32.521Z,12.29
2022-12-26T15:31:29.875Z,12.24
2022-12-26T15:34:11.933Z,12.22
2022-12-26T15:36:54.242Z,12.20
2022-12-26T15:39:55.592Z,12.15
2022-12-26T15:43:00.802Z,12.09
2022-12-26T15:45:45.078Z,12.01
2022-12-26T15:48:27.674Z,11.94
2022-12-26T15:51:08.220Z,11.90
2022-12-26T15:53:54.862Z,11.84
2022-12-26T15:57:07.842Z,11.78
2022-12-26T16:00:08.201Z,11.70
2022-12-26T16:03:02.139Z,12.16
2022-12-26T16:05:41.575Z,12.06
2022-12-26T16:08:25.385Z,11.86
2022-12-26T16:11:18.980Z,11.73
2022-12-26T16:14:03.804Z,11.66
2022-12-26T16:16:37.747Z,11.61
2022-12-26T16:19:26.948Z,11.57
2022-12-26T16:22:24.307Z,11.53
2022-12-26T16:24:54.227Z,11.49
2022-12-26T16:27:25.246Z,11.46
2022-12-26T16:30:01.350Z,11.45
2022-12-26T16:32:38.766Z,11.39
2022-12-26T16:35:08.110Z,11.34
2022-12-26T16:37:34.978Z,11.30
2022-12-26T16:40:33.413Z,11.24
2022-12-26T16:43:13.799Z,11.15
2022-12-26T16:45:42.748Z,11.08
2022-12-26T16:48:15.011Z,11.02
2022-12-26T16:51:04.813Z,10.94
2022-12-26T16:53:40.153Z,10.83
2022-12-26T16:56:34.197Z,10.71
2022-12-26T16:59:19.348Z,10.59
2022-12-26T17:01:59.192Z,10.49
2022-12-26T17:04:29.796Z,10.42
2022-12-26T17:07:05.406Z,10.36
2022-12-26T17:09:44.693Z,10.29
2022-12-26T17:12:33.069Z,10.23
2022-12-26T17:15:02.513Z,10.18
2022-12-26T17:17:39.513Z,10.10
2022-12-26T17:20:40.481Z,10.03
2022-12-26T17:23:38.883Z,9.93
2022-12-26T17:26:29.003Z,9.85
2022-12-26T17:28:55.963Z,9.79
2022-12-26T17:31:42.932Z,9.77
2022-12-26T17:34:26.526Z,9.71
2022-12-26T17:37:18.342Z,9.67
2022-12-26T17:39:40.805Z,9.63
2022-12-26T17:42:07.649Z,9.61
2022-12-26T17:44:44.648Z,9.58
2022-12-26T17:47:28.477Z,9.54
2022-12-26T17:49:56.519Z,9.48
2022-12-26T17:52:28.483Z,9.42
2022-12-26T17:54:58.096Z,9.38
2022-12-26T17:57:28.818Z,9.34
2022-12-26T17:59:57.068Z,9.30
2022-12-26T18:02:24.078Z,9.28
2022-12-26T18:04:51.191Z,9.23
2022-12-26T18:07:31.749Z,9.21
2022-12-26T18:41:13.509Z,8.49
2022-12-26T18:43:40.217Z,8.44
2022-12-26T18:46:17.203Z,8.43
2022-12-26T18:48:44.345Z,8.43
2022-12-26T18:51:11.809Z,8.45
2022-12-26T18:57:40.862Z,8.56
2022-12-26T19:00:32.961Z,8.48
2022-12-26T19:21:38.773Z,8.09
2022-12-26T19:24:15.052Z,8.07
2022-12-26T19:26:41.878Z,8.07
2022-12-26T19:29:20.203Z,8.04
2022-12-26T19:33:05.337Z,8.07
2022-12-26T19:43:25.143Z,7.91
2022-12-26T19:46:35.360Z,7.95
2022-12-26T19:53:39.024Z,7.88
2022-12-26T19:55:47.205Z,7.92
2022-12-26T19:58:18.259Z,7.95
2022-12-26T20:01:47.546Z,7.98
2022-12-26T20:05:11.700Z,7.98
2022-12-26T20:12:09.496Z,7.91
2022-12-26T20:18:39.916Z,7.93
2022-12-26T20:21:25.008Z,7.87
2022-12-26T20:27:30.504Z,7.86
2022-12-26T20:31:12.937Z,7.90
2022-12-26T20:34:19.005Z,7.85
2022-12-26T20:36:51.489Z,7.84
2022-12-26T20:39:20.160Z,7.87
2022-12-26T20:42:15.656Z,7.88
2022-12-26T20:48:41.054Z,7.81
2022-12-26T20:54:26.225Z,7.82
2022-12-26T20:58:00.275Z,7.85
2022-12-26T21:00:27.049Z,7.83
2022-12-26T21:02:53.922Z,7.88
2022-12-26T21:05:20.806Z,7.91
2022-12-26T21:07:47.610Z,7.93
2022-12-26T21:10:14.372Z,7.96
2022-12-26T21:12:41.081Z,7.97
2022-12-26T21:15:09.017Z,7.99
2022-12-26T21:17:36.889Z,7.98
2022-12-26T21:20:04.159Z,7.99
2022-12-26T21:22:30.900Z,8.00
2022-12-26T21:24:57.605Z,8.02
2022-12-26T21:27:24.323Z,8.00
2022-12-26T21:29:51.028Z,7.99
2022-12-26T21:32:17.754Z,8.00
2022-12-26T21:34:44.489Z,8.00
2022-12-26T21:37:29.876Z,8.01
2022-12-26T21:39:56.566Z,7.97
2022-12-26T21:42:23.341Z,7.97
2022-12-26T21:44:50.076Z,7.97
2022-12-26T21:47:16.888Z,7.97
2022-12-26T21:49:43.619Z,7.97
2022-12-26T21:52:10.984Z,7.98
2022-12-26T21:54:56.813Z,7.98
2022-12-26T21:57:23.889Z,7.97
2022-12-26T21:59:56.566Z,7.97
2022-12-26T22:02:53.622Z,7.95
2022-12-26T22:05:25.361Z,7.92
2022-12-26T22:08:01.275Z,7.91
2022-12-26T22:10:51.792Z,7.93
2022-12-26T22:13:20.502Z,7.91
2022-12-26T22:16:04.500Z,7.93
2022-12-26T22:18:39.752Z,7.92
2022-12-26T22:21:12.772Z,7.93
2022-12-26T22:23:41.328Z,7.94
2022-12-26T22:26:11.202Z,7.94
2022-12-26T22:28:39.013Z,7.96
2022-12-26T22:31:06.991Z,7.94
2022-12-26T22:33:34.224Z,7.94
2022-12-26T22:36:09.318Z,7.94
2022-12-26T22:38:38.073Z,7.94
2022-12-26T22:41:05.494Z,7.96
2022-12-26T22:43:32.503Z,7.96
2022-12-26T22:45:59.319Z,7.97
2022-12-26T22:48:28.423Z,7.97
2022-12-26T22:50:56.125Z,7.99
2022-12-26T22:53:28.557Z,7.98
2022-12-26T22:56:01.689Z,7.97
2022-12-26T22:58:30.507Z,7.97
2022-12-26T23:00:57.615Z,7.97
2022-12-26T23:03:25.987Z,8.00
2022-12-26T23:05:54.045Z,8.01
2022-12-26T23:08:26.225Z,7.99
2022-12-26T23:10:56.532Z,8.00
2022-12-26T23:13:24.417Z,8.01
2022-12-26T23:15:58.896Z,8.00
2022-12-26T23:19:03.452Z,8.00
2022-12-26T23:21:44.924Z,7.97
2022-12-26T23:24:20.923Z,7.96
2022-12-26T23:26:55.586Z,7.97
2022-12-26T23:29:42.802Z,7.98
2022-12-26T23:32:10.992Z,7.96
2022-12-26T23:34:37.871Z,7.97
2022-12-26T23:37:04.649Z,7.99
2022-12-26T23:39:31.438Z,8.00
2022-12-26T23:41:58.242Z,7.99
2022-12-26T23:44:24.960Z,7.99
2022-12-26T23:46:51.692Z,8.01
2022-12-26T23:49:18.438Z,8.02
2022-12-26T23:51:45.249Z,8.03
2022-12-26T23:54:12.022Z,8.04
2022-12-26T23:56:38.738Z,8.03
2022-12-26T23:59:06.204Z,8.07
